Time;durP1;ratioP1;P1;durP2;ratioP2;P2;SDS_P1;SDS_P2;PMS_P1;PMS_P2;Temp;Humidity;BMP_temperature;BMP_pressure;BME280_temperature;BME280_humidity;BME280_pressure;Samples;Min_cycle;Max_cycle;Signal;HPM_P1;HPM_P2
2023/01/11 00:02:01;;;;;;;0.10;0.10;;;;;;;;;;5028957;28;20120;-73
2023/01/11 00:04:29;;;;;;;0.15;0.15;;;;;;;;;;5029066;28;20037;-73
2023/01/11 00:06:55;;;;;;;0.10;0.10;;;;;;;;;;5027060;28;20061;-75
2023/01/11 00:09:20;;;;;;;0.10;0.10;;;;;;;;;;5007686;28;20030;-75
2023/01/11 00:11:46;;;;;;;0.93;0.93;;;;;;;;;;5009067;28;20022;-75
2023/01/11 00:14:11;;;;;;;0.10;0.10;;;;;;;;;;5016782;28;20014;-75
2023/01/11 00:16:37;;;;;;;0.20;0.20;;;;;;;;;;5031669;28;20037;-75
2023/01/11 00:19:02;;;;;;;0.10;0.10;;;;;;;;;;5046905;28;20027;-76
2023/01/11 00:21:30;;;;;;;0.10;0.10;;;;;;;;;;5036667;28;20033;-75
2023/01/11 00:23:56;;;;;;;0.10;0.10;;;;;;;;;;5044659;28;20021;-75
2023/01/11 00:26:21;;;;;;;0.10;0.10;;;;;;;;;;5046510;28;20514;-73
2023/01/11 00:28:47;;;;;;;0.10;0.10;;;;;;;;;;5045707;28;20033;-74
2023/01/11 00:31:13;;;;;;;0.10;0.10;;;;;;;;;;5029753;28;20152;-75
2023/01/11 00:33:38;;;;;;;0.10;0.10;;;;;;;;;;5036373;28;20496;-74
2023/01/11 00:36:04;;;;;;;0.10;0.10;;;;;;;;;;5042410;28;20033;-75
2023/01/11 00:49:30;;;;;;;0.10;0.10;;;;;;;;;;5023434;28;20025;-76
2023/01/11 00:51:55;;;;;;;0.32;0.20;;;;;;;;;;5035702;28;20637;-74
2023/01/11 00:54:20;;;;;;;0.17;0.17;;;;;;;;;;5035381;28;20017;-75
2023/01/11 00:56:46;;;;;;;0.10;0.10;;;;;;;;;;5042930;28;20021;-74
2023/01/11 00:59:11;;;;;;;0.15;0.15;;;;;;;;;;5035906;28;20491;-74
2023/01/11 01:01:37;;;;;;;1.25;1.05;;;;;;;;;;5016261;28;20087;-75
2023/01/11 01:04:02;;;;;;;0.20;0.20;;;;;;;;;;5035735;28;20608;-74
2023/01/11 01:06:28;;;;;;;0.10;0.10;;;;;;;;;;5017739;28;20116;-74
2023/01/11 01:08:54;;;;;;;0.10;0.10;;;;;;;;;;5035117;28;20053;-74
2023/01/11 01:11:19;;;;;;;0.10;0.10;;;;;;;;;;5034754;28;20025;-74
2023/01/11 01:16:28;;;;;;;0.20;0.20;;;;;;;;;;5033355;28;20034;-75
2023/01/11 01:18:56;;;;;;;0.30;0.28;;;;;;;;;;5033241;28;20412;-77
2023/01/11 01:21:22;;;;;;;0.28;0.22;;;;;;;;;;5033477;28;20055;-75
2023/01/11 01:23:47;;;;;;;0.10;0.10;;;;;;;;;;5032092;28;20033;-77
2023/01/11 01:26:12;;;;;;;0.20;0.20;;;;;;;;;;5033406;28;20342;-75
2023/01/11 01:28:38;;;;;;;0.10;0.10;;;;;;;;;;5017507;28;20083;-76
2023/01/11 01:31:03;;;;;;;0.10;0.10;;;;;;;;;;5035206;28;20053;-75
2023/01/11 01:33:29;;;;;;;0.20;0.20;;;;;;;;;;5017362;28;20496;-73
2023/01/11 01:35:54;;;;;;;0.10;0.10;;;;;;;;;;5034932;28;20034;-74
2023/01/11 01:38:19;;;;;;;0.10;0.10;;;;;;;;;;5034332;28;20029;-73
2023/01/11 01:40:46;;;;;;;0.17;0.17;;;;;;;;;;5035451;28;20021;-77
2023/01/11 01:43:12;;;;;;;0.20;0.20;;;;;;;;;;5034987;28;20036;-75
2023/01/11 01:45:38;;;;;;;0.20;0.20;;;;;;;;;;5034947;28;20033;-75
2023/01/11 01:48:05;;;;;;;0.10;0.10;;;;;;;;;;5017121;28;20029;-76
2023/01/11 01:50:45;;;;;;;0.10;0.10;;;;;;;;;;5034869;28;20068;-75
2023/01/11 01:53:34;;;;;;;0.10;0.10;;;;;;;;;;5033734;28;20021;-75
2023/01/11 01:56:02;;;;;;;0.10;0.10;;;;;;;;;;5034676;28;20037;-75
2023/01/11 01:58:30;;;;;;;0.10;0.10;;;;;;;;;;5034597;28;20024;-76
2023/01/11 02:00:55;;;;;;;0.10;0.10;;;;;;;;;;5032418;28;20341;-76
2023/01/11 02:03:22;;;;;;;0.10;0.10;;;;;;;;;;5016943;28;20052;-76
2023/01/11 02:05:49;;;;;;;0.20;0.20;;;;;;;;;;5014744;28;20022;-77
2023/01/11 02:08:33;;;;;;;0.10;0.10;;;;;;;;;;5014692;28;20044;-77
2023/01/11 02:10:59;;;;;;;0.10;0.10;;;;;;;;;;5014672;28;20176;-77
2023/01/11 02:13:24;;;;;;;0.10;0.10;;;;;;;;;;5014615;28;20477;-77
2023/01/11 02:16:06;;;;;;;0.10;0.10;;;;;;;;;;5014699;28;20369;-76
2023/01/11 02:18:32;;;;;;;0.10;0.10;;;;;;;;;;5014095;28;20335;-75
2023/01/11 02:21:28;;;;;;;0.10;0.10;;;;;;;;;;5013162;28;20040;-75
2023/01/11 02:23:57;;;;;;;0.10;0.10;;;;;;;;;;5002031;28;20657;-74
2023/01/11 02:26:34;;;;;;;0.10;0.10;;;;;;;;;;5013665;28;20037;-75
2023/01/11 02:29:05;;;;;;;0.10;0.10;;;;;;;;;;5014056;28;20022;-75
2023/01/11 02:31:34;;;;;;;0.10;0.10;;;;;;;;;;5014470;28;20028;-75
2023/01/11 02:34:12;;;;;;;0.10;0.10;;;;;;;;;;5014218;28;20028;-75
2023/01/11 02:36:44;;;;;;;0.20;0.20;;;;;;;;;;5013113;28;20037;-75
2023/01/11 02:39:15;;;;;;;0.10;0.10;;;;;;;;;;5013513;28;20041;-74
2023/01/11 02:45:07;;;;;;;0.13;0.13;;;;;;;;;;5012710;28;20160;-73
2023/01/11 02:47:54;;;;;;;0.10;0.10;;;;;;;;;;5010251;28;20120;-73
2023/01/11 02:50:33;;;;;;;0.10;0.10;;;;;;;;;;5014420;28;20470;-75
2023/01/11 02:53:02;;;;;;;0.10;0.10;;;;;;;;;;5032577;28;20052;-77
2023/01/11 02:55:32;;;;;;;0.10;0.10;;;;;;;;;;5033805;28;20043;-72
2023/01/11 02:57:59;;;;;;;0.10;0.10;;;;;;;;;;5033598;28;20017;-75
2023/01/11 03:00:25;;;;;;;0.20;0.20;;;;;;;;;;5016006;28;20025;-75
2023/01/11 03:03:07;;;;;;;0.10;0.10;;;;;;;;;;5033427;28;20040;-74
2023/01/11 03:05:36;;;;;;;0.10;0.10;;;;;;;;;;5032102;28;20033;-75
2023/01/11 03:08:09;;;;;;;0.20;0.20;;;;;;;;;;5033153;28;20092;-75
2023/01/11 03:10:45;;;;;;;0.10;0.10;;;;;;;;;;5033709;28;20029;-74
2023/01/11 03:13:10;;;;;;;0.80;0.45;;;;;;;;;;5033549;28;20028;-73
2023/01/11 03:15:38;;;;;;;0.22;0.22;;;;;;;;;;5033332;28;20381;-74
2023/01/11 03:18:13;;;;;;;0.30;0.30;;;;;;;;;;5033177;28;20021;-74
2023/01/11 03:20:49;;;;;;;0.10;0.10;;;;;;;;;;5033765;28;20457;-74
2023/01/11 03:23:24;;;;;;;0.20;0.20;;;;;;;;;;5032987;28;20528;-72
2023/01/11 03:26:01;;;;;;;0.10;0.10;;;;;;;;;;5033283;28;20021;-72
2023/01/11 03:28:46;;;;;;;0.10;0.10;;;;;;;;;;5032405;28;20022;-72
2023/01/11 03:31:27;;;;;;;0.10;0.10;;;;;;;;;;4999953;28;20481;-74
2023/01/11 03:34:16;;;;;;;0.10;0.10;;;;;;;;;;5013464;28;20034;-72
2023/01/11 03:36:44;;;;;;;0.10;0.10;;;;;;;;;;5015932;28;20048;-72
2023/01/11 03:39:23;;;;;;;0.10;0.10;;;;;;;;;;5033085;28;20057;-72
2023/01/11 03:41:51;;;;;;;0.85;0.85;;;;;;;;;;5033173;28;20361;-72
2023/01/11 03:44:18;;;;;;;0.10;0.10;;;;;;;;;;5033280;28;20034;-72
2023/01/11 03:46:45;;;;;;;0.20;0.20;;;;;;;;;;5033006;28;20071;-74
2023/01/11 03:49:40;;;;;;;0.10;0.10;;;;;;;;;;5033069;28;20025;-73
2023/01/11 03:52:07;;;;;;;0.10;0.10;;;;;;;;;;5024261;28;20049;-72
2023/01/11 03:54:33;;;;;;;0.10;0.10;;;;;;;;;;5037110;28;20075;-75
2023/01/11 03:57:04;;;;;;;0.10;0.10;;;;;;;;;;5037065;28;20470;-72
2023/01/11 03:59:30;;;;;;;0.10;0.10;;;;;;;;;;5037006;28;20021;-72
2023/01/11 04:01:55;;;;;;;0.10;0.10;;;;;;;;;;5049513;28;20528;-73
2023/01/11 04:04:21;;;;;;;0.10;0.10;;;;;;;;;;5032999;28;20033;-72
2023/01/11 04:06:46;;;;;;;0.00;0.00;;;;;;;;;;5052902;28;20068;-73
2023/01/11 04:09:12;;;;;;;0.43;0.43;;;;;;;;;;5052953;28;20029;-73
2023/01/11 04:11:37;;;;;;;0.10;0.10;;;;;;;;;;5053166;28;20104;-73
2023/01/11 04:14:03;;;;;;;0.10;0.10;;;;;;;;;;5034841;28;20110;-73
2023/01/11 04:16:28;;;;;;;0.10;0.10;;;;;;;;;;5032784;28;20033;-74
2023/01/11 04:18:54;;;;;;;0.10;0.10;;;;;;;;;;5033077;28;20353;-74
2023/01/11 04:21:19;;;;;;;0.00;0.00;;;;;;;;;;5032676;28;20013;-73
2023/01/11 04:23:47;;;;;;;0.17;0.17;;;;;;;;;;5031391;28;20018;-73
2023/01/11 04:26:12;;;;;;;0.10;0.10;;;;;;;;;;5031825;28;20052;-72
2023/01/11 04:28:37;;;;;;;0.10;0.10;;;;;;;;;;5033014;28;20053;-73
2023/01/11 04:31:03;;;;;;;0.10;0.10;;;;;;;;;;5014879;28;20022;-72
2023/01/11 04:33:28;;;;;;;0.10;0.10;;;;;;;;;;5030861;28;20029;-72
2023/01/11 04:35:54;;;;;;;0.10;0.10;;;;;;;;;;5032365;28;20115;-73
2023/01/11 04:38:22;;;;;;;0.10;0.10;;;;;;;;;;5032301;28;20185;-72
2023/01/11 04:40:48;;;;;;;0.10;0.10;;;;;;;;;;5014966;28;20017;-72
2023/01/11 04:43:13;;;;;;;0.10;0.10;;;;;;;;;;5032400;28;20424;-72
2023/01/11 04:45:39;;;;;;;0.10;0.10;;;;;;;;;;5032219;28;20368;-73
2023/01/11 04:48:04;;;;;;;0.10;0.10;;;;;;;;;;5032039;28;20472;-73
2023/01/11 04:50:30;;;;;;;0.10;0.10;;;;;;;;;;5032316;28;20017;-73
2023/01/11 04:52:56;;;;;;;0.82;0.73;;;;;;;;;;5032444;28;20076;-73
2023/01/11 04:55:22;;;;;;;0.10;0.10;;;;;;;;;;5031714;28;20033;-74
2023/01/11 04:57:47;;;;;;;0.20;0.20;;;;;;;;;;5032200;28;20037;-73
2023/01/11 05:00:14;;;;;;;0.10;0.10;;;;;;;;;;5031607;28;20057;-73
2023/01/11 05:02:40;;;;;;;0.00;0.00;;;;;;;;;;5023573;28;20132;-73
2023/01/11 05:05:06;;;;;;;0.00;0.00;;;;;;;;;;5032519;28;20541;-73
2023/01/11 05:07:32;;;;;;;0.10;0.10;;;;;;;;;;5032373;28;20018;-73
2023/01/11 05:09:57;;;;;;;0.10;0.10;;;;;;;;;;5029981;28;20028;-73
2023/01/11 05:12:23;;;;;;;0.10;0.10;;;;;;;;;;5013550;28;20368;-74
2023/01/11 05:14:48;;;;;;;0.35;0.35;;;;;;;;;;5031689;28;20034;-73
2023/01/11 05:17:14;;;;;;;0.10;0.10;;;;;;;;;;5014235;28;20025;-73
2023/01/11 05:19:40;;;;;;;0.10;0.10;;;;;;;;;;5013687;28;20083;-73
2023/01/11 05:22:06;;;;;;;0.03;0.03;;;;;;;;;;5031897;28;20021;-74
2023/01/11 05:24:31;;;;;;;0.10;0.10;;;;;;;;;;5031390;28;20029;-75
2023/01/11 05:26:57;;;;;;;0.10;0.10;;;;;;;;;;5030418;28;20021;-75
2023/01/11 05:29:22;;;;;;;0.00;0.00;;;;;;;;;;5031781;28;20038;-75
2023/01/11 05:31:48;;;;;;;0.10;0.10;;;;;;;;;;5030136;28;20025;-75
2023/01/11 05:34:14;;;;;;;0.00;0.00;;;;;;;;;;5021688;28;20034;-75
2023/01/11 05:36:39;;;;;;;0.00;0.00;;;;;;;;;;5031206;28;20037;-75
2023/01/11 05:39:05;;;;;;;0.03;0.03;;;;;;;;;;5031255;28;20056;-76
2023/01/11 05:41:31;;;;;;;0.35;0.35;;;;;;;;;;5031409;28;20013;-76
2023/01/11 05:46:48;;;;;;;0.00;0.00;;;;;;;;;;5012595;28;20086;-76
2023/01/11 05:49:14;;;;;;;0.25;0.25;;;;;;;;;;5031505;28;20033;-75
2023/01/11 05:51:40;;;;;;;0.00;0.00;;;;;;;;;;5030959;28;20343;-74
2023/01/11 05:54:08;;;;;;;0.10;0.10;;;;;;;;;;5028945;28;20017;-75
2023/01/11 05:56:33;;;;;;;0.10;0.10;;;;;;;;;;5030872;28;20037;-74
2023/01/11 05:58:59;;;;;;;0.10;0.10;;;;;;;;;;5030812;28;20361;-74
2023/01/11 06:01:24;;;;;;;0.10;0.10;;;;;;;;;;5030064;28;20026;-71
2023/01/11 06:03:50;;;;;;;0.30;0.30;;;;;;;;;;5030856;28;20140;-72
2023/01/11 06:06:16;;;;;;;0.63;0.50;;;;;;;;;;5030374;28;20772;-71
2023/01/11 06:08:42;;;;;;;0.43;0.20;;;;;;;;;;5012017;28;20029;-71
2023/01/11 06:11:07;;;;;;;1.50;0.65;;;;;;;;;;5012082;28;20049;-72
2023/01/11 06:13:32;;;;;;;0.57;0.20;;;;;;;;;;5028930;28;20030;-75
2023/01/11 06:16:03;;;;;;;0.00;0.00;;;;;;;;;;5029068;28;20469;-74
2023/01/11 06:18:29;;;;;;;0.70;0.70;;;;;;;;;;5012727;28;20412;-75
2023/01/11 06:20:55;;;;;;;0.30;0.30;;;;;;;;;;5012849;28;20120;-75
2023/01/11 06:23:21;;;;;;;1.55;1.00;;;;;;;;;;5010849;28;20037;-75
2023/01/11 06:25:47;;;;;;;5.72;1.27;;;;;;;;;;5029932;28;20025;-74
2023/01/11 06:28:12;;;;;;;1.02;0.45;;;;;;;;;;5029728;28;20079;-75
2023/01/11 06:30:38;;;;;;;0.00;0.00;;;;;;;;;;5012237;28;20108;-75
2023/01/11 06:33:06;;;;;;;3.08;0.80;;;;;;;;;;5030420;28;20036;-75
2023/01/11 06:35:40;;;;;;;0.20;0.20;;;;;;;;;;5012337;28;20060;-75
2023/01/11 06:38:09;;;;;;;0.60;0.60;;;;;;;;;;5029535;28;20025;-75
2023/01/11 06:40:35;;;;;;;0.10;0.10;;;;;;;;;;5010946;28;20393;-73
2023/01/11 06:43:00;;;;;;;0.05;0.05;;;;;;;;;;5008633;28;20033;-76
2023/01/11 06:45:26;;;;;;;0.10;0.10;;;;;;;;;;5027955;28;20025;-73
2023/01/11 06:47:51;;;;;;;0.25;0.25;;;;;;;;;;5011348;28;20036;-74
2023/01/11 06:50:17;;;;;;;0.47;0.47;;;;;;;;;;5012281;28;20507;-74
2023/01/11 06:52:42;;;;;;;0.10;0.10;;;;;;;;;;5029835;28;20021;-74
2023/01/11 06:55:08;;;;;;;0.05;0.05;;;;;;;;;;5028502;28;20416;-74
2023/01/11 06:57:34;;;;;;;0.00;0.00;;;;;;;;;;5029428;28;20086;-73
2023/01/11 06:59:59;;;;;;;0.10;0.10;;;;;;;;;;5028740;28;20025;-74
2023/01/11 07:02:25;;;;;;;0.10;0.10;;;;;;;;;;5025791;28;20037;-74
2023/01/11 07:04:51;;;;;;;1.20;0.60;;;;;;;;;;5029032;28;20072;-75
2023/01/11 07:07:17;;;;;;;0.10;0.10;;;;;;;;;;5029387;28;20074;-77
2023/01/11 07:09:43;;;;;;;0.10;0.10;;;;;;;;;;5003448;28;20029;-74
2023/01/11 07:12:08;;;;;;;0.05;0.05;;;;;;;;;;5029432;28;20022;-74
2023/01/11 07:14:34;;;;;;;0.00;0.00;;;;;;;;;;5006097;28;20032;-75
2023/01/11 07:16:59;;;;;;;0.38;0.38;;;;;;;;;;5029245;28;20143;-74
2023/01/11 07:19:24;;;;;;;0.52;0.52;;;;;;;;;;5028942;28;20449;-74
2023/01/11 07:21:50;;;;;;;0.00;0.00;;;;;;;;;;5029421;28;20484;-74
2023/01/11 07:24:16;;;;;;;0.10;0.10;;;;;;;;;;5029463;28;20021;-75
2023/01/11 07:26:42;;;;;;;0.20;0.20;;;;;;;;;;5028444;28;20029;-74
2023/01/11 07:29:08;;;;;;;0.10;0.10;;;;;;;;;;5029047;28;20424;-77
2023/01/11 07:31:33;;;;;;;0.10;0.10;;;;;;;;;;5029609;28;20029;-75
2023/01/11 07:33:59;;;;;;;0.10;0.10;;;;;;;;;;5029299;28;20562;-75
2023/01/11 07:36:24;;;;;;;0.38;0.38;;;;;;;;;;5029668;28;20045;-75
2023/01/11 07:38:50;;;;;;;1.88;1.77;;;;;;;;;;5029181;28;20028;-76
2023/01/11 07:44:09;;;;;;;14.15;2.40;;;;;;;;;;5004599;28;20550;-75
2023/01/11 07:46:34;;;;;;;0.10;0.10;;;;;;;;;;5028628;28;20112;-75
2023/01/11 07:49:00;;;;;;;6.53;0.90;;;;;;;;;;5025925;28;20014;-72
2023/01/11 07:51:25;;;;;;;0.35;0.35;;;;;;;;;;5028732;28;20522;-73
2023/01/11 07:53:51;;;;;;;1.95;1.13;;;;;;;;;;5028473;28;20009;-73
2023/01/11 07:56:16;;;;;;;1.25;0.82;;;;;;;;;;5028738;28;20128;-74
2023/01/11 07:58:42;;;;;;;0.40;0.22;;;;;;;;;;5008309;28;20060;-76
2023/01/11 08:01:07;;;;;;;4.22;1.77;;;;;;;;;;5028706;28;20079;-74
2023/01/11 08:03:32;;;;;;;0.40;0.30;;;;;;;;;;5028125;28;20087;-72
2023/01/11 08:05:58;;;;;;;0.50;0.35;;;;;;;;;;5028285;28;20014;-75
2023/01/11 08:08:23;;;;;;;0.22;0.22;;;;;;;;;;5002738;28;20117;-73
2023/01/11 08:16:18;;;;;;;0.90;0.60;;;;;;;;;;5028585;28;20025;-75
2023/01/11 08:18:44;;;;;;;1.52;0.70;;;;;;;;;;5028428;28;20052;-75
2023/01/11 08:21:09;;;;;;;0.55;0.55;;;;;;;;;;5028322;28;20341;-72
2023/01/11 08:23:35;;;;;;;3.67;0.60;;;;;;;;;;5028157;28;20496;-72
2023/01/11 08:26:00;;;;;;;7.03;0.95;;;;;;;;;;5027163;28;20108;-73
2023/01/11 08:28:26;;;;;;;0.85;0.60;;;;;;;;;;5027860;28;20104;-70
2023/01/11 08:30:51;;;;;;;0.10;0.10;;;;;;;;;;5026849;28;20344;-70
2023/01/11 08:33:17;;;;;;;0.10;0.10;;;;;;;;;;5028462;28;20026;-70
2023/01/11 08:35:43;;;;;;;0.38;0.38;;;;;;;;;;5028272;28;20037;-71
2023/01/11 08:38:09;;;;;;;0.10;0.10;;;;;;;;;;5030467;28;20104;-70
2023/01/11 08:40:34;;;;;;;0.20;0.20;;;;;;;;;;5032267;28;20013;-70
2023/01/11 08:43:00;;;;;;;0.10;0.10;;;;;;;;;;5032186;28;20028;-71
2023/01/11 08:45:25;;;;;;;1.60;1.10;;;;;;;;;;5032193;28;20030;-70
2023/01/11 08:47:51;;;;;;;1.85;1.08;;;;;;;;;;5032335;28;20112;-70
2023/01/11 08:50:18;;;;;;;2.83;0.88;;;;;;;;;;5032300;28;20487;-70
2023/01/11 08:52:43;;;;;;;0.95;0.70;;;;;;;;;;5030944;28;20033;-70
2023/01/11 08:55:09;;;;;;;0.10;0.10;;;;;;;;;;5032177;28;20040;-70
2023/01/11 08:57:36;;;;;;;1.25;0.73;;;;;;;;;;5030707;28;20108;-71
2023/01/11 09:00:05;;;;;;;0.28;0.28;;;;;;;;;;5024235;28;20096;-72
2023/01/11 09:02:31;;;;;;;;;;;;;;;;;;5030838;28;20389;-72
2023/01/11 09:04:56;;;;;;;1.15;0.60;;;;;;;;;;5031375;28;19905;-71
2023/01/11 09:07:22;;;;;;;0.10;0.10;;;;;;;;;;5031180;28;20108;-71
2023/01/11 09:09:47;;;;;;;0.77;0.77;;;;;;;;;;5031195;28;20016;-72
2023/01/11 09:12:13;;;;;;;0.10;0.10;;;;;;;;;;5030941;28;20029;-72
2023/01/11 09:14:39;;;;;;;0.10;0.10;;;;;;;;;;5030533;28;20381;-71
2023/01/11 09:17:04;;;;;;;0.10;0.10;;;;;;;;;;5031314;28;20021;-68
2023/01/11 09:19:32;;;;;;;0.10;0.10;;;;;;;;;;5030661;28;20026;-71
2023/01/11 09:21:59;;;;;;;0.40;0.40;;;;;;;;;;5025140;28;20469;-69
2023/01/11 09:24:25;;;;;;;1.15;1.00;;;;;;;;;;5031315;28;20469;-69
2023/01/11 09:26:50;;;;;;;0.10;0.10;;;;;;;;;;5029626;28;20041;-69
2023/01/11 09:29:17;;;;;;;0.10;0.10;;;;;;;;;;5030235;28;20113;-69
2023/01/11 09:31:43;;;;;;;0.10;0.10;;;;;;;;;;5029860;28;20021;-69
2023/01/11 09:34:11;;;;;;;0.10;0.10;;;;;;;;;;5029402;28;20022;-70
2023/01/11 09:36:38;;;;;;;0.30;0.30;;;;;;;;;;5035297;28;20144;-69
2023/01/11 09:39:07;;;;;;;1.48;1.02;;;;;;;;;;5048862;28;20055;-69
2023/01/11 09:41:41;;;;;;;0.10;0.10;;;;;;;;;;5048342;28;20025;-70
2023/01/11 09:44:20;;;;;;;0.15;0.10;;;;;;;;;;5049015;28;20039;-70
2023/01/11 09:46:51;;;;;;;0.10;0.10;;;;;;;;;;5048496;28;20079;-69
2023/01/11 09:49:19;;;;;;;0.10;0.10;;;;;;;;;;5048520;28;20029;-68
2023/01/11 09:51:45;;;;;;;0.30;0.30;;;;;;;;;;5032491;28;20029;-68
2023/01/11 09:54:16;;;;;;;0.20;0.20;;;;;;;;;;5046072;28;20022;-69
2023/01/11 09:57:05;;;;;;;0.10;0.10;;;;;;;;;;5030908;28;20125;-70
2023/01/11 09:59:36;;;;;;;0.10;0.10;;;;;;;;;;5020328;28;20044;-69
2023/01/11 10:02:18;;;;;;;0.10;0.10;;;;;;;;;;5013131;28;20129;-69
2023/01/11 10:05:14;;;;;;;0.10;0.10;;;;;;;;;;5030145;28;20047;-69
2023/01/11 10:07:42;;;;;;;0.57;0.57;;;;;;;;;;5008578;28;20042;-69
2023/01/11 10:10:12;;;;;;;0.25;0.17;;;;;;;;;;5030175;28;20025;-70
2023/01/11 10:12:40;;;;;;;;;;;;;;;;;;5030704;28;20357;-70
2023/01/11 10:15:20;;;;;;;0.30;0.30;;;;;;;;;;5030648;28;19920;-71
2023/01/11 10:17:58;;;;;;;0.10;0.10;;;;;;;;;;5030230;28;20030;-71
2023/01/11 10:20:36;;;;;;;0.10;0.10;;;;;;;;;;5030653;28;20033;-69
2023/01/11 10:23:10;;;;;;;0.10;0.10;;;;;;;;;;5030306;28;20029;-68
2023/01/11 10:25:46;;;;;;;0.10;0.10;;;;;;;;;;5030284;28;20100;-70
2023/01/11 10:28:21;;;;;;;0.10;0.10;;;;;;;;;;5030344;28;20037;-70
2023/01/11 10:33:41;;;;;;;0.10;0.10;;;;;;;;;;5030431;28;20516;-69
2023/01/11 10:41:40;;;;;;;0.10;0.10;;;;;;;;;;5029588;28;20030;-70
2023/01/11 10:44:08;;;;;;;0.10;0.10;;;;;;;;;;5029932;28;20032;-69
2023/01/11 10:46:45;;;;;;;0.10;0.10;;;;;;;;;;5012366;28;20472;-70
2023/01/11 10:49:27;;;;;;;0.10;0.10;;;;;;;;;;5011104;28;20053;-70
2023/01/11 10:51:54;;;;;;;0.10;0.10;;;;;;;;;;5029009;28;20149;-70
2023/01/11 10:54:32;;;;;;;3.58;0.63;;;;;;;;;;5029410;28;20480;-70
2023/01/11 10:57:06;;;;;;;0.20;0.20;;;;;;;;;;5029508;28;20041;-70
2023/01/11 10:59:34;;;;;;;0.10;0.10;;;;;;;;;;5028816;28;20492;-69
2023/01/11 11:02:05;;;;;;;0.70;0.30;;;;;;;;;;5029207;28;20045;-70
2023/01/11 11:04:33;;;;;;;0.10;0.10;;;;;;;;;;5011871;28;20025;-69
2023/01/11 11:06:58;;;;;;;0.10;0.10;;;;;;;;;;5029208;28;20465;-70
2023/01/11 11:09:43;;;;;;;0.10;0.10;;;;;;;;;;5029512;28;20025;-69
2023/01/11 11:12:17;;;;;;;0.10;0.10;;;;;;;;;;5029323;28;20454;-69
2023/01/11 11:14:46;;;;;;;0.40;0.40;;;;;;;;;;5029109;28;20976;-70
2023/01/11 11:17:21;;;;;;;0.73;0.52;;;;;;;;;;5029347;28;20043;-69
2023/01/11 11:19:46;;;;;;;0.45;0.45;;;;;;;;;;5029330;28;20063;-70
2023/01/11 11:22:12;;;;;;;0.32;0.20;;;;;;;;;;5029292;28;20303;-70
2023/01/11 11:24:41;;;;;;;0.10;0.10;;;;;;;;;;5028739;28;20022;-71
2023/01/11 11:27:07;;;;;;;0.10;0.10;;;;;;;;;;5029022;28;20022;-68
2023/01/11 11:29:39;;;;;;;3.13;1.38;;;;;;;;;;5028882;28;20044;-72
2023/01/11 11:32:12;;;;;;;0.43;0.30;;;;;;;;;;5011148;28;20396;-70
2023/01/11 11:34:44;;;;;;;0.10;0.10;;;;;;;;;;5028947;28;20392;-69
2023/01/11 11:37:18;;;;;;;0.10;0.10;;;;;;;;;;5029525;28;20044;-70
2023/01/11 11:39:46;;;;;;;0.10;0.10;;;;;;;;;;5028395;28;20029;-68
2023/01/11 11:42:16;;;;;;;0.10;0.10;;;;;;;;;;5028866;28;20112;-70
2023/01/11 11:44:41;;;;;;;0.40;0.40;;;;;;;;;;5029172;28;20052;-69
2023/01/11 11:47:14;;;;;;;0.15;0.15;;;;;;;;;;5029084;28;20037;-72
2023/01/11 11:49:41;;;;;;;0.10;0.10;;;;;;;;;;5029036;28;20022;-69
2023/01/11 11:52:11;;;;;;;0.30;0.30;;;;;;;;;;5029191;28;20056;-69
2023/01/11 11:54:42;;;;;;;0.00;0.00;;;;;;;;;;5028763;28;20120;-69
2023/01/11 11:57:21;;;;;;;0.10;0.10;;;;;;;;;;5028808;28;20048;-69
2023/01/11 11:59:46;;;;;;;;;;;;;;;;;;5029645;28;20033;-69
2023/01/11 12:02:26;;;;;;;0.10;0.10;;;;;;;;;;5028638;28;20307;-71
2023/01/11 12:04:52;;;;;;;0.10;0.10;;;;;;;;;;5011062;28;20826;-70
2023/01/11 12:07:22;;;;;;;0.10;0.10;;;;;;;;;;5028518;28;20144;-71
2023/01/11 12:09:50;;;;;;;0.30;0.30;;;;;;;;;;5028629;28;20022;-69
2023/01/11 12:12:17;;;;;;;0.10;0.10;;;;;;;;;;5032046;28;20033;-70
2023/01/11 12:14:42;;;;;;;0.17;0.17;;;;;;;;;;5032262;28;20021;-70
2023/01/11 12:17:21;;;;;;;0.10;0.10;;;;;;;;;;5032556;28;20018;-70
2023/01/11 12:19:47;;;;;;;0.10;0.10;;;;;;;;;;5032114;28;20025;-69
2023/01/11 12:22:18;;;;;;;0.10;0.10;;;;;;;;;;5032376;28;20035;-69
2023/01/11 12:24:48;;;;;;;0.10;0.10;;;;;;;;;;5032262;28;20021;-69
2023/01/11 12:27:13;;;;;;;;;;;;;;;;;;5033139;28;20020;-70
2023/01/11 12:29:43;;;;;;;0.10;0.10;;;;;;;;;;5009373;28;19905;-70
2023/01/11 12:32:17;;;;;;;0.10;0.10;;;;;;;;;;4992409;28;20280;-69
2023/01/11 12:35:03;;;;;;;0.10;0.10;;;;;;;;;;4992714;28;20030;-68
2023/01/11 12:37:38;;;;;;;0.20;0.20;;;;;;;;;;4995602;28;20030;-69
2023/01/11 12:40:15;;;;;;;0.10;0.10;;;;;;;;;;5012079;28;20381;-69
2023/01/11 12:42:40;;;;;;;0.10;0.10;;;;;;;;;;5014651;28;20049;-69
2023/01/11 12:45:20;;;;;;;0.25;0.25;;;;;;;;;;5012143;28;20465;-69
2023/01/11 12:47:54;;;;;;;0.20;0.20;;;;;;;;;;5011678;28;20030;-69
2023/01/11 12:50:32;;;;;;;0.10;0.10;;;;;;;;;;5012294;28;20026;-69
2023/01/11 12:52:57;;;;;;;0.10;0.10;;;;;;;;;;5011448;28;20058;-69
2023/01/11 12:55:23;;;;;;;1.95;1.23;;;;;;;;;;5011037;28;20554;-69
2023/01/11 12:58:03;;;;;;;0.20;0.20;;;;;;;;;;5009992;28;20018;-69
2023/01/11 13:00:48;;;;;;;0.10;0.10;;;;;;;;;;5015058;28;20097;-68
2023/01/11 13:03:27;;;;;;;0.30;0.30;;;;;;;;;;5043417;28;20045;-69
2023/01/11 13:06:09;;;;;;;0.10;0.10;;;;;;;;;;5036229;28;20033;-69
2023/01/11 13:08:34;;;;;;;0.10;0.10;;;;;;;;;;5031165;28;20021;-69
2023/01/11 13:11:06;;;;;;;0.20;0.20;;;;;;;;;;5031547;28;20025;-70
2023/01/11 13:13:32;;;;;;;0.20;0.20;;;;;;;;;;5031638;28;20024;-68
2023/01/11 13:16:09;;;;;;;0.20;0.20;;;;;;;;;;5030723;28;20453;-69
2023/01/11 13:18:58;;;;;;;0.13;0.13;;;;;;;;;;5030320;28;20034;-70
2023/01/11 13:21:43;;;;;;;0.10;0.10;;;;;;;;;;5030096;28;20113;-69
2023/01/11 13:24:18;;;;;;;0.10;0.10;;;;;;;;;;5030437;28;20556;-69
2023/01/11 13:26:45;;;;;;;0.20;0.20;;;;;;;;;;5030370;28;20040;-69
2023/01/11 13:29:15;;;;;;;0.10;0.10;;;;;;;;;;5029412;28;20096;-69
2023/01/11 13:31:42;;;;;;;0.20;0.20;;;;;;;;;;5029816;28;20022;-69
2023/01/11 13:34:26;;;;;;;0.10;0.10;;;;;;;;;;5030767;28;20053;-71
2023/01/11 13:36:56;;;;;;;0.10;0.10;;;;;;;;;;5030819;28;20380;-70
2023/01/11 13:39:33;;;;;;;0.15;0.15;;;;;;;;;;5029355;28;20057;-69
2023/01/11 13:42:03;;;;;;;0.20;0.20;;;;;;;;;;5028526;28;20049;-69
2023/01/11 13:44:34;;;;;;;0.17;0.17;;;;;;;;;;5028725;28;20531;-69
2023/01/11 13:47:12;;;;;;;0.22;0.22;;;;;;;;;;5028836;28;20033;-69
2023/01/11 13:49:37;;;;;;;0.20;0.20;;;;;;;;;;5028680;28;20032;-69
2023/01/11 13:52:09;;;;;;;0.10;0.10;;;;;;;;;;5028993;28;20029;-70
2023/01/11 13:54:43;;;;;;;0.20;0.20;;;;;;;;;;5030863;28;20123;-69
2023/01/11 13:57:15;;;;;;;3.60;2.75;;;;;;;;;;5030113;28;20369;-69
2023/01/11 13:59:46;;;;;;;0.10;0.10;;;;;;;;;;5030565;28;20322;-70
2023/01/11 14:02:18;;;;;;;1.23;1.10;;;;;;;;;;5030815;28;20052;-68
2023/01/11 14:04:59;;;;;;;0.10;0.10;;;;;;;;;;5029960;28;20484;-68
2023/01/11 14:07:38;;;;;;;0.20;0.20;;;;;;;;;;5031142;28;20032;-68
2023/01/11 14:10:03;;;;;;;0.20;0.20;;;;;;;;;;5030350;28;20025;-69
2023/01/11 14:12:38;;;;;;;0.20;0.20;;;;;;;;;;5030408;28;20017;-69
2023/01/11 14:15:22;;;;;;;0.10;0.10;;;;;;;;;;5030422;28;20029;-69
2023/01/11 14:17:56;;;;;;;0.10;0.10;;;;;;;;;;5013015;28;20029;-68
2023/01/11 14:20:22;;;;;;;0.10;0.10;;;;;;;;;;5030414;28;20014;-69
2023/01/11 14:22:47;;;;;;;0.17;0.17;;;;;;;;;;5033490;28;20021;-69
2023/01/11 14:25:13;;;;;;;0.20;0.20;;;;;;;;;;5031207;28;20353;-69
2023/01/11 14:27:59;;;;;;;0.20;0.20;;;;;;;;;;5028621;28;20051;-69
2023/01/11 14:30:27;;;;;;;0.10;0.10;;;;;;;;;;5048619;28;20096;-68
2023/01/11 14:32:56;;;;;;;0.10;0.10;;;;;;;;;;5049727;28;20024;-68
2023/01/11 14:35:31;;;;;;;0.10;0.10;;;;;;;;;;5043635;28;20112;-68
2023/01/11 14:38:15;;;;;;;0.20;0.20;;;;;;;;;;5038540;28;20052;-69
2023/01/11 14:41:19;;;;;;;0.30;0.30;;;;;;;;;;5029698;28;20027;-68
2023/01/11 14:44:08;;;;;;;0.10;0.10;;;;;;;;;;4988263;28;20034;-69
2023/01/11 14:46:44;;;;;;;0.10;0.10;;;;;;;;;;4978301;28;20565;-69
2023/01/11 14:49:19;;;;;;;0.22;0.22;;;;;;;;;;5017194;28;20260;-69
2023/01/11 14:51:56;;;;;;;0.20;0.20;;;;;;;;;;5025920;28;20025;-69
2023/01/11 14:54:25;;;;;;;0.13;0.13;;;;;;;;;;5040906;28;20071;-71
2023/01/11 14:56:52;;;;;;;0.30;0.30;;;;;;;;;;5046440;28;20112;-69
2023/01/11 14:59:24;;;;;;;0.20;0.20;;;;;;;;;;5046870;28;20016;-69
2023/01/11 15:02:01;;;;;;;0.20;0.20;;;;;;;;;;5046652;28;20076;-69
2023/01/11 15:04:27;;;;;;;0.10;0.10;;;;;;;;;;5047071;28;20066;-69
2023/01/11 15:06:54;;;;;;;0.20;0.20;;;;;;;;;;5047261;28;20029;-69
2023/01/11 15:09:45;;;;;;;0.20;0.20;;;;;;;;;;5028367;28;20479;-68
2023/01/11 15:12:15;;;;;;;0.25;0.25;;;;;;;;;;5043744;28;20079;-69
2023/01/11 15:14:40;;;;;;;;;;;;;;;;;;5046271;28;20472;-69
2023/01/11 15:20:04;;;;;;;0.85;0.85;;;;;;;;;;5045346;28;20295;-69
2023/01/11 15:22:31;;;;;;;0.20;0.20;;;;;;;;;;5046044;28;20680;-69
2023/01/11 15:24:58;;;;;;;2.85;0.85;;;;;;;;;;5047071;28;20068;-69
2023/01/11 15:27:25;;;;;;;0.10;0.10;;;;;;;;;;5030573;28;20024;-69
2023/01/11 15:29:55;;;;;;;0.10;0.10;;;;;;;;;;5048892;28;20021;-68
2023/01/11 15:32:23;;;;;;;0.40;0.40;;;;;;;;;;5028638;28;20461;-69
2023/01/11 15:34:49;;;;;;;0.10;0.10;;;;;;;;;;5026260;28;20021;-69
2023/01/11 15:37:14;;;;;;;4.22;4.03;;;;;;;;;;5029522;28;20029;-69
2023/01/11 15:39:43;;;;;;;0.10;0.10;;;;;;;;;;5036123;28;20057;-70